sensor_id;sensor_type;location;lat;lon;timestamp;pressure;altitude;pressure_sealevel;temperature;humidity
78990;BME280;68390;52.130;21.218;2023-03-25T00:04:53;99385.84;;;9.66;84.29
78990;BME280;68390;52.130;21.218;2023-03-25T00:07:20;99394.84;;;9.60;84.12
78990;BME280;68390;52.130;21.218;2023-03-25T00:09:46;99387.38;;;9.53;83.67
78990;BME280;68390;52.130;21.218;2023-03-25T00:12:13;99382.28;;;9.50;84.11
78990;BME280;68390;52.130;21.218;2023-03-25T00:14:39;99378.88;;;9.48;84.00
78990;BME280;68390;52.130;21.218;2023-03-25T00:17:04;99378.38;;;9.45;84.21
78990;BME280;68390;52.130;21.218;2023-03-25T00:19:31;99366.13;;;9.41;84.40
78990;BME280;68390;52.130;21.218;2023-03-25T00:21:57;99362.72;;;9.39;84.13
78990;BME280;68390;52.130;21.218;2023-03-25T00:24:23;99368.94;;;9.33;84.32
78990;BME280;68390;52.130;21.218;2023-03-25T00:26:48;99374.97;;;9.28;84.33
78990;BME280;68390;52.130;21.218;2023-03-25T00:29:15;99369.22;;;9.23;84.14
78990;BME280;68390;52.130;21.218;2023-03-25T00:31:41;99377.13;;;9.18;83.93
78990;BME280;68390;52.130;21.218;2023-03-25T00:34:07;99376.84;;;9.13;84.54
78990;BME280;68390;52.130;21.218;2023-03-25T00:36:33;99362.84;;;9.08;84.50
78990;BME280;68390;52.130;21.218;2023-03-25T00:39:03;99379.00;;;9.03;84.10
78990;BME280;68390;52.130;21.218;2023-03-25T00:41:28;99381.09;;;9.01;84.33
78990;BME280;68390;52.130;21.218;2023-03-25T00:43:55;99375.97;;;8.98;84.73
78990;BME280;68390;52.130;21.218;2023-03-25T00:46:22;99370.50;;;8.98;85.11
78990;BME280;68390;52.130;21.218;2023-03-25T00:48:49;99374.25;;;8.97;84.73
78990;BME280;68390;52.130;21.218;2023-03-25T00:51:15;99373.22;;;8.98;85.02
78990;BME280;68390;52.130;21.218;2023-03-25T00:53:43;99372.38;;;8.97;85.02
78990;BME280;68390;52.130;21.218;2023-03-25T00:56:10;99372.19;;;8.99;85.27
78990;BME280;68390;52.130;21.218;2023-03-25T00:58:36;99368.41;;;9.00;85.52
78990;BME280;68390;52.130;21.218;2023-03-25T01:01:11;99378.53;;;8.99;85.10
78990;BME280;68390;52.130;21.218;2023-03-25T01:03:38;99376.81;;;8.98;85.32
78990;BME280;68390;52.130;21.218;2023-03-25T01:06:14;99378.53;;;8.99;85.53
78990;BME280;68390;52.130;21.218;2023-03-25T01:08:41;99386.91;;;8.98;85.65
78990;BME280;68390;52.130;21.218;2023-03-25T01:11:18;99373.91;;;9.00;84.57
78990;BME280;68390;52.130;21.218;2023-03-25T01:13:44;99365.69;;;9.00;84.76
78990;BME280;68390;52.130;21.218;2023-03-25T01:16:10;99366.72;;;8.99;85.31
78990;BME280;68390;52.130;21.218;2023-03-25T01:18:35;99368.78;;;8.97;85.16
78990;BME280;68390;52.130;21.218;2023-03-25T01:21:06;99367.09;;;8.96;85.22
78990;BME280;68390;52.130;21.218;2023-03-25T01:23:32;99365.38;;;8.95;85.36
78990;BME280;68390;52.130;21.218;2023-03-25T01:25:58;99370.00;;;8.94;85.15
78990;BME280;68390;52.130;21.218;2023-03-25T01:28:23;99373.97;;;8.92;84.67
78990;BME280;68390;52.130;21.218;2023-03-25T01:30:49;99375.00;;;8.91;84.85
78990;BME280;68390;52.130;21.218;2023-03-25T01:33:15;99364.59;;;8.86;84.35
78990;BME280;68390;52.130;21.218;2023-03-25T01:35:41;99353.56;;;8.79;84.08
78990;BME280;68390;52.130;21.218;2023-03-25T01:38:06;99359.56;;;8.75;84.47
78990;BME280;68390;52.130;21.218;2023-03-25T01:40:32;99353.13;;;8.68;84.38
78990;BME280;68390;52.130;21.218;2023-03-25T01:42:57;99358.28;;;8.63;83.85
78990;BME280;68390;52.130;21.218;2023-03-25T01:45:29;99346.38;;;8.56;84.10
78990;BME280;68390;52.130;21.218;2023-03-25T01:48:06;99359.97;;;8.49;84.42
78990;BME280;68390;52.130;21.218;2023-03-25T01:50:37;99350.59;;;8.43;84.79
78990;BME280;68390;52.130;21.218;2023-03-25T01:53:05;99363.13;;;8.38;84.96
78990;BME280;68390;52.130;21.218;2023-03-25T01:55:32;99356.47;;;8.32;84.73
78990;BME280;68390;52.130;21.218;2023-03-25T01:58:02;99363.69;;;8.25;84.40
78990;BME280;68390;52.130;21.218;2023-03-25T02:00:30;99366.94;;;8.21;85.08
78990;BME280;68390;52.130;21.218;2023-03-25T02:02:57;99365.97;;;8.14;84.48
78990;BME280;68390;52.130;21.218;2023-03-25T02:05:32;99381.41;;;8.06;84.69
78990;BME280;68390;52.130;21.218;2023-03-25T02:08:01;99385.50;;;8.02;84.34
78990;BME280;68390;52.130;21.218;2023-03-25T02:10:30;99388.28;;;7.94;85.38
78990;BME280;68390;52.130;21.218;2023-03-25T02:12:56;99389.19;;;7.87;84.51
78990;BME280;68390;52.130;21.218;2023-03-25T02:15:23;99384.59;;;7.79;84.96
78990;BME280;68390;52.130;21.218;2023-03-25T02:18:01;99381.56;;;7.74;84.48
78990;BME280;68390;52.130;21.218;2023-03-25T02:26:38;99378.44;;;7.46;85.76
78990;BME280;68390;52.130;21.218;2023-03-25T02:29:35;99368.56;;;7.37;85.87
78990;BME280;68390;52.130;21.218;2023-03-25T02:32:19;99356.28;;;7.33;86.85
78990;BME280;68390;52.130;21.218;2023-03-25T02:35:10;99362.63;;;7.25;86.50
78990;BME280;68390;52.130;21.218;2023-03-25T02:38:01;99356.81;;;7.20;85.71
78990;BME280;68390;52.130;21.218;2023-03-25T02:40:55;99362.47;;;7.11;87.15
78990;BME280;68390;52.130;21.218;2023-03-25T02:43:43;99376.13;;;7.03;86.52
78990;BME280;68390;52.130;21.218;2023-03-25T02:46:14;99383.13;;;6.97;85.09
78990;BME280;68390;52.130;21.218;2023-03-25T02:48:56;99387.72;;;6.88;85.75
78990;BME280;68390;52.130;21.218;2023-03-25T02:51:27;99386.72;;;6.81;85.48
78990;BME280;68390;52.130;21.218;2023-03-25T02:53:56;99376.69;;;6.74;85.56
78990;BME280;68390;52.130;21.218;2023-03-25T02:56:24;99379.91;;;6.69;85.98
78990;BME280;68390;52.130;21.218;2023-03-25T02:58:52;99365.25;;;6.62;85.60
78990;BME280;68390;52.130;21.218;2023-03-25T03:14:13;99374.25;;;6.30;85.89
78990;BME280;68390;52.130;21.218;2023-03-25T03:16:56;99375.28;;;6.29;86.98
78990;BME280;68390;52.130;21.218;2023-03-25T03:22:12;99382.94;;;6.25;87.89
78990;BME280;68390;52.130;21.218;2023-03-25T03:24:46;99385.66;;;6.25;87.67
78990;BME280;68390;52.130;21.218;2023-03-25T03:27:28;99386.66;;;6.24;88.13
78990;BME280;68390;52.130;21.218;2023-03-25T03:33:20;99386.66;;;6.24;87.54
78990;BME280;68390;52.130;21.218;2023-03-25T03:36:08;99387.03;;;6.21;87.73
78990;BME280;68390;52.130;21.218;2023-03-25T03:39:05;99391.09;;;6.17;88.26
78990;BME280;68390;52.130;21.218;2023-03-25T03:41:35;99389.56;;;6.15;87.55
78990;BME280;68390;52.130;21.218;2023-03-25T03:44:06;99383.41;;;6.13;87.83
78990;BME280;68390;52.130;21.218;2023-03-25T03:46:49;99378.31;;;6.10;87.18
78990;BME280;68390;52.130;21.218;2023-03-25T03:49:21;99375.91;;;6.07;87.46
78990;BME280;68390;52.130;21.218;2023-03-25T03:51:52;99379.13;;;6.02;86.56
78990;BME280;68390;52.130;21.218;2023-03-25T03:54:25;99380.66;;;5.97;86.44
78990;BME280;68390;52.130;21.218;2023-03-25T03:56:59;99382.34;;;5.89;86.29
78990;BME280;68390;52.130;21.218;2023-03-25T03:59:34;99387.38;;;5.84;86.40
78990;BME280;68390;52.130;21.218;2023-03-25T04:02:05;99393.50;;;5.78;85.60
78990;BME280;68390;52.130;21.218;2023-03-25T04:04:33;99396.72;;;5.74;86.29
78990;BME280;68390;52.130;21.218;2023-03-25T04:07:14;99399.25;;;5.67;86.10
78990;BME280;68390;52.130;21.218;2023-03-25T04:09:50;99409.09;;;5.60;85.32
78990;BME280;68390;52.130;21.218;2023-03-25T04:14:49;99403.75;;;5.50;85.58
78990;BME280;68390;52.130;21.218;2023-03-25T04:17:14;99404.94;;;5.48;86.31
78990;BME280;68390;52.130;21.218;2023-03-25T04:19:40;99405.97;;;5.47;87.11
78990;BME280;68390;52.130;21.218;2023-03-25T04:22:05;99409.69;;;5.46;86.17
78990;BME280;68390;52.130;21.218;2023-03-25T04:24:31;99409.00;;;5.44;86.65
78990;BME280;68390;52.130;21.218;2023-03-25T04:26:58;99419.19;;;5.42;86.80
78990;BME280;68390;52.130;21.218;2023-03-25T04:29:28;99417.47;;;5.41;86.74
78990;BME280;68390;52.130;21.218;2023-03-25T04:31:53;99427.72;;;5.39;86.40
78990;BME280;68390;52.130;21.218;2023-03-25T04:34:21;99434.47;;;5.35;85.59
78990;BME280;68390;52.130;21.218;2023-03-25T04:36:47;99424.91;;;5.31;85.46
78990;BME280;68390;52.130;21.218;2023-03-25T04:39:15;99425.91;;;5.30;87.35
78990;BME280;68390;52.130;21.218;2023-03-25T04:41:47;99426.09;;;5.28;87.42
78990;BME280;68390;52.130;21.218;2023-03-25T04:44:12;99426.97;;;5.29;88.38
78990;BME280;68390;52.130;21.218;2023-03-25T04:46:38;99423.19;;;5.30;87.87
78990;BME280;68390;52.130;21.218;2023-03-25T04:49:04;99430.34;;;5.31;87.48
78990;BME280;68390;52.130;21.218;2023-03-25T04:51:39;99424.59;;;5.34;87.57
78990;BME280;68390;52.130;21.218;2023-03-25T04:54:11;99412.84;;;5.33;87.77
78990;BME280;68390;52.130;21.218;2023-03-25T04:56:37;99411.69;;;5.36;87.01
78990;BME280;68390;52.130;21.218;2023-03-25T04:59:03;99409.50;;;5.39;87.47
78990;BME280;68390;52.130;21.218;2023-03-25T05:01:29;99411.88;;;5.42;87.97
78990;BME280;68390;52.130;21.218;2023-03-25T05:04:00;99410.72;;;5.45;88.43
78990;BME280;68390;52.130;21.218;2023-03-25T05:06:34;99416.69;;;5.48;88.08
78990;BME280;68390;52.130;21.218;2023-03-25T05:09:01;99420.63;;;5.54;88.06
78990;BME280;68390;52.130;21.218;2023-03-25T05:11:29;99427.13;;;5.61;87.78
78990;BME280;68390;52.130;21.218;2023-03-25T05:13:55;99429.91;;;5.69;88.29
78990;BME280;68390;52.130;21.218;2023-03-25T05:16:21;99431.97;;;5.75;88.85
78990;BME280;68390;52.130;21.218;2023-03-25T05:18:47;99436.75;;;5.81;89.38
78990;BME280;68390;52.130;21.218;2023-03-25T05:21:12;99444.00;;;5.91;88.90
78990;BME280;68390;52.130;21.218;2023-03-25T05:23:38;99439.06;;;5.94;89.18
78990;BME280;68390;52.130;21.218;2023-03-25T05:26:04;99436.34;;;6.02;88.87
78990;BME280;68390;52.130;21.218;2023-03-25T05:28:30;99443.72;;;6.10;89.44
78990;BME280;68390;52.130;21.218;2023-03-25T05:30:55;99438.63;;;6.15;89.12
78990;BME280;68390;52.130;21.218;2023-03-25T05:33:22;99429.78;;;6.21;88.84
78990;BME280;68390;52.130;21.218;2023-03-25T05:35:47;99443.44;;;6.29;88.52
78990;BME280;68390;52.130;21.218;2023-03-25T05:38:13;99441.56;;;6.38;89.11
78990;BME280;68390;52.130;21.218;2023-03-25T05:40:46;99446.19;;;6.45;88.78
78990;BME280;68390;52.130;21.218;2023-03-25T05:43:13;99442.63;;;6.53;89.62
78990;BME280;68390;52.130;21.218;2023-03-25T05:45:40;99444.34;;;6.62;89.38
78990;BME280;68390;52.130;21.218;2023-03-25T05:48:06;99447.78;;;6.72;89.58
78990;BME280;68390;52.130;21.218;2023-03-25T05:50:32;99445.91;;;6.81;89.63
78990;BME280;68390;52.130;21.218;2023-03-25T05:52:58;99442.16;;;6.90;89.55
78990;BME280;68390;52.130;21.218;2023-03-25T05:55:24;99452.03;;;6.99;89.09
78990;BME280;68390;52.130;21.218;2023-03-25T05:57:50;99445.53;;;7.08;88.60
78990;BME280;68390;52.130;21.218;2023-03-25T06:00:17;99454.56;;;7.17;89.04
78990;BME280;68390;52.130;21.218;2023-03-25T06:02:46;99457.50;;;7.23;89.03
78990;BME280;68390;52.130;21.218;2023-03-25T06:05:14;99449.28;;;7.31;88.48
78990;BME280;68390;52.130;21.218;2023-03-25T06:07:41;99446.53;;;7.40;88.99
78990;BME280;68390;52.130;21.218;2023-03-25T06:10:11;99447.72;;;7.45;88.71
78990;BME280;68390;52.130;21.218;2023-03-25T06:12:37;99454.19;;;7.52;88.86
78990;BME280;68390;52.130;21.218;2023-03-25T06:15:10;99450.59;;;7.60;88.40
78990;BME280;68390;52.130;21.218;2023-03-25T06:17:37;99453.31;;;7.68;88.00
78990;BME280;68390;52.130;21.218;2023-03-25T06:20:07;99454.31;;;7.75;88.45
78990;BME280;68390;52.130;21.218;2023-03-25T06:22:41;99458.03;;;7.82;87.75
78990;BME280;68390;52.130;21.218;2023-03-25T06:25:08;99452.06;;;7.87;87.49
78990;BME280;68390;52.130;21.218;2023-03-25T06:27:35;99458.34;;;7.95;87.03
78990;BME280;68390;52.130;21.218;2023-03-25T06:30:06;99450.97;;;8.04;87.44
78990;BME280;68390;52.130;21.218;2023-03-25T06:32:32;99449.19;;;8.11;87.67
78990;BME280;68390;52.130;21.218;2023-03-25T06:34:57;99450.41;;;8.17;87.40
78990;BME280;68390;52.130;21.218;2023-03-25T06:37:22;99455.81;;;8.25;87.34
78990;BME280;68390;52.130;21.218;2023-03-25T06:39:50;99449.97;;;8.36;86.29
78990;BME280;68390;52.130;21.218;2023-03-25T06:42:21;99444.09;;;8.47;86.32
78990;BME280;68390;52.130;21.218;2023-03-25T06:44:46;99451.91;;;8.58;86.26
78990;BME280;68390;52.130;21.218;2023-03-25T06:47:12;99450.47;;;8.70;86.57
78990;BME280;68390;52.130;21.218;2023-03-25T06:49:37;99457.75;;;8.78;85.39
78990;BME280;68390;52.130;21.218;2023-03-25T06:52:03;99458.03;;;8.83;84.53
78990;BME280;68390;52.130;21.218;2023-03-25T06:54:28;99460.16;;;8.96;85.13
78990;BME280;68390;52.130;21.218;2023-03-25T06:56:54;99456.50;;;9.03;84.82
78990;BME280;68390;52.130;21.218;2023-03-25T06:59:19;99451.84;;;9.12;85.17
78990;BME280;68390;52.130;21.218;2023-03-25T07:01:44;99446.28;;;9.20;83.96
78990;BME280;68390;52.130;21.218;2023-03-25T07:04:10;99452.72;;;9.27;84.06
78990;BME280;68390;52.130;21.218;2023-03-25T07:06:35;99461.91;;;9.34;82.79
78990;BME280;68390;52.130;21.218;2023-03-25T07:09:01;99461.16;;;9.40;83.35
78990;BME280;68390;52.130;21.218;2023-03-25T07:11:28;99463.16;;;9.46;83.44
78990;BME280;68390;52.130;21.218;2023-03-25T07:13:54;99457.59;;;9.54;82.92
78990;BME280;68390;52.130;21.218;2023-03-25T07:16:20;99457.97;;;9.66;81.96
78990;BME280;68390;52.130;21.218;2023-03-25T07:18:46;99453.06;;;9.76;81.49
78990;BME280;68390;52.130;21.218;2023-03-25T07:21:12;99467.06;;;9.81;81.09
78990;BME280;68390;52.130;21.218;2023-03-25T07:23:37;99463.88;;;9.92;81.36
78990;BME280;68390;52.130;21.218;2023-03-25T07:26:03;99453.16;;;10.12;81.23
78990;BME280;68390;52.130;21.218;2023-03-25T07:28:28;99451.00;;;10.22;82.19
78990;BME280;68390;52.130;21.218;2023-03-25T07:30:53;99449.47;;;10.35;79.77
78990;BME280;68390;52.130;21.218;2023-03-25T07:33:19;99446.69;;;10.49;80.06
78990;BME280;68390;52.130;21.218;2023-03-25T07:35:45;99445.75;;;10.57;79.01
78990;BME280;68390;52.130;21.218;2023-03-25T07:38:10;99451.47;;;10.62;78.67
78990;BME280;68390;52.130;21.218;2023-03-25T07:40:36;99449.78;;;10.61;78.42
78990;BME280;68390;52.130;21.218;2023-03-25T07:43:01;99456.72;;;10.57;78.14
78990;BME280;68390;52.130;21.218;2023-03-25T07:45:27;99449.59;;;10.62;77.51
78990;BME280;68390;52.130;21.218;2023-03-25T07:47:52;99450.06;;;10.66;78.51
78990;BME280;68390;52.130;21.218;2023-03-25T07:50:19;99441.88;;;10.73;79.35
78990;BME280;68390;52.130;21.218;2023-03-25T07:52:45;99436.22;;;10.74;76.79
78990;BME280;68390;52.130;21.218;2023-03-25T07:55:11;99435.16;;;10.75;76.73
78990;BME280;68390;52.130;21.218;2023-03-25T07:57:37;99441.84;;;10.87;77.64
78990;BME280;68390;52.130;21.218;2023-03-25T08:00:03;99441.56;;;11.03;77.10
78990;BME280;68390;52.130;21.218;2023-03-25T08:02:30;99435.31;;;11.10;76.40
78990;BME280;68390;52.130;21.218;2023-03-25T08:04:55;99433.78;;;11.28;76.05
78990;BME280;68390;52.130;21.218;2023-03-25T08:07:21;99432.81;;;11.43;75.53
78990;BME280;68390;52.130;21.218;2023-03-25T08:09:47;99426.13;;;11.52;75.77
78990;BME280;68390;52.130;21.218;2023-03-25T08:12:12;99423.44;;;11.58;74.95
78990;BME280;68390;52.130;21.218;2023-03-25T08:14:38;99418.38;;;11.62;74.08
78990;BME280;68390;52.130;21.218;2023-03-25T08:17:05;99420.50;;;11.66;73.09
78990;BME280;68390;52.130;21.218;2023-03-25T08:19:31;99431.34;;;11.74;74.43
78990;BME280;68390;52.130;21.218;2023-03-25T08:21:56;99430.81;;;11.86;73.10
78990;BME280;68390;52.130;21.218;2023-03-25T08:24:22;99422.91;;;12.04;74.08
78990;BME280;68390;52.130;21.218;2023-03-25T08:26:49;99430.34;;;12.10;72.59
78990;BME280;68390;52.130;21.218;2023-03-25T08:29:14;99429.19;;;12.39;75.56
78990;BME280;68390;52.130;21.218;2023-03-25T08:31:42;99441.78;;;12.61;73.68
78990;BME280;68390;52.130;21.218;2023-03-25T08:34:11;99441.00;;;12.87;74.75
78990;BME280;68390;52.130;21.218;2023-03-25T08:36:36;99440.66;;;13.16;73.11
78990;BME280;68390;52.130;21.218;2023-03-25T08:39:06;99436.84;;;13.37;71.05
78990;BME280;68390;52.130;21.218;2023-03-25T08:41:36;99431.31;;;13.57;71.82
78990;BME280;68390;52.130;21.218;2023-03-25T08:44:03;99426.22;;;13.67;69.81
78990;BME280;68390;52.130;21.218;2023-03-25T08:46:28;99435.13;;;13.56;67.88
78990;BME280;68390;52.130;21.218;2023-03-25T08:48:54;99433.66;;;13.67;69.83
78990;BME280;68390;52.130;21.218;2023-03-25T08:51:20;99436.63;;;13.65;69.87
78990;BME280;68390;52.130;21.218;2023-03-25T08:53:45;99442.56;;;13.69;67.18
78990;BME280;68390;52.130;21.218;2023-03-25T08:56:11;99449.38;;;13.59;68.06
78990;BME280;68390;52.130;21.218;2023-03-25T08:58:36;99451.06;;;13.67;68.13
78990;BME280;68390;52.130;21.218;2023-03-25T09:01:03;99451.88;;;13.74;68.98
78990;BME280;68390;52.130;21.218;2023-03-25T09:03:28;99452.09;;;13.73;66.81
78990;BME280;68390;52.130;21.218;2023-03-25T09:05:54;99446.34;;;13.87;66.45
78990;BME280;68390;52.130;21.218;2023-03-25T09:08:20;99442.91;;;14.05;67.93
78990;BME280;68390;52.130;21.218;2023-03-25T09:10:45;99447.13;;;14.21;67.30
78990;BME280;68390;52.130;21.218;2023-03-25T09:13:11;99434.53;;;14.38;65.88
78990;BME280;68390;52.130;21.218;2023-03-25T09:15:36;99441.94;;;14.51;62.98
78990;BME280;68390;52.130;21.218;2023-03-25T09:18:02;99424.00;;;14.66;64.20
78990;BME280;68390;52.130;21.218;2023-03-25T09:20:27;99425.69;;;14.67;64.31
78990;BME280;68390;52.130;21.218;2023-03-25T09:22:53;99425.47;;;14.69;64.73
78990;BME280;68390;52.130;21.218;2023-03-25T09:25:18;99427.13;;;14.77;64.30
78990;BME280;68390;52.130;21.218;2023-03-25T09:27:44;99421.59;;;14.83;65.25
78990;BME280;68390;52.130;21.218;2023-03-25T09:30:10;99429.03;;;14.83;61.98
78990;BME280;68390;52.130;21.218;2023-03-25T09:32:35;99425.63;;;14.81;60.17
78990;BME280;68390;52.130;21.218;2023-03-25T09:35:01;99431.16;;;14.81;64.31
78990;BME280;68390;52.130;21.218;2023-03-25T09:37:26;99426.69;;;14.80;60.53
78990;BME280;68390;52.130;21.218;2023-03-25T09:39:52;99419.09;;;14.68;59.69
78990;BME280;68390;52.130;21.218;2023-03-25T09:50:29;99418.03;;;14.69;62.36
78990;BME280;68390;52.130;21.218;2023-03-25T09:55:39;99409.81;;;14.63;60.43
78990;BME280;68390;52.130;21.218;2023-03-25T09:58:41;99403.44;;;14.62;62.06
78990;BME280;68390;52.130;21.218;2023-03-25T10:01:36;99410.22;;;14.60;63.33
78990;BME280;68390;52.130;21.218;2023-03-25T10:12:46;99397.84;;;14.69;62.33
78990;BME280;68390;52.130;21.218;2023-03-25T10:15:31;99400.28;;;14.90;62.01
78990;BME280;68390;52.130;21.218;2023-03-25T10:20:46;99391.97;;;15.22;58.46
78990;BME280;68390;52.130;21.218;2023-03-25T10:23:28;99384.50;;;15.22;57.80
78990;BME280;68390;52.130;21.218;2023-03-25T10:26:01;99381.13;;;15.20;55.97
78990;BME280;68390;52.130;21.218;2023-03-25T10:28:37;99391.66;;;15.05;57.15
78990;BME280;68390;52.130;21.218;2023-03-25T10:31:03;99400.28;;;14.90;57.86
78990;BME280;68390;52.130;21.218;2023-03-25T10:33:35;99382.63;;;14.85;59.27
78990;BME280;68390;52.130;21.218;2023-03-25T10:36:03;99380.06;;;14.90;59.90
78990;BME280;68390;52.130;21.218;2023-03-25T10:38:32;99373.03;;;14.94;60.27
78990;BME280;68390;52.130;21.218;2023-03-25T10:41:10;99373.81;;;15.01;60.55
78990;BME280;68390;52.130;21.218;2023-03-25T10:43:38;99373.88;;;14.94;57.26
78990;BME280;68390;52.130;21.218;2023-03-25T10:46:15;99379.00;;;14.91;57.31
78990;BME280;68390;52.130;21.218;2023-03-25T10:48:41;99371.56;;;14.91;58.68
78990;BME280;68390;52.130;21.218;2023-03-25T10:51:10;99375.59;;;14.89;57.32
78990;BME280;68390;52.130;21.218;2023-03-25T10:53:36;99367.16;;;14.84;58.59
78990;BME280;68390;52.130;21.218;2023-03-25T10:56:04;99367.94;;;14.91;59.39
78990;BME280;68390;52.130;21.218;2023-03-25T10:58:33;99359.38;;;14.99;59.59
78990;BME280;68390;52.130;21.218;2023-03-25T11:01:09;99357.13;;;15.14;58.99
78990;BME280;68390;52.130;21.218;2023-03-25T11:03:36;99350.13;;;15.36;56.96
78990;BME280;68390;52.130;21.218;2023-03-25T11:06:03;99347.94;;;15.45;53.05
78990;BME280;68390;52.130;21.218;2023-03-25T11:08:29;99354.50;;;15.69;56.88
78990;BME280;68390;52.130;21.218;2023-03-25T11:10:55;99351.06;;;15.73;53.85
78990;BME280;68390;52.130;21.218;2023-03-25T11:13:28;99347.75;;;15.83;52.34
78990;BME280;68390;52.130;21.218;2023-03-25T11:15:57;99348.91;;;15.75;50.59
78990;BME280;68390;52.130;21.218;2023-03-25T11:20:51;99339.44;;;16.01;53.50
78990;BME280;68390;52.130;21.218;2023-03-25T11:24:04;99339.94;;;15.98;51.77
78990;BME280;68390;52.130;21.218;2023-03-25T11:26:07;99329.75;;;16.10;52.64
78990;BME280;68390;52.130;21.218;2023-03-25T11:28:43;99325.59;;;16.01;51.63
78990;BME280;68390;52.130;21.218;2023-03-25T11:31:18;99333.91;;;16.01;48.49
78990;BME280;68390;52.130;21.218;2023-03-25T11:33:45;99322.84;;;15.83;50.22
78990;BME280;68390;52.130;21.218;2023-03-25T11:38:45;99322.72;;;15.53;50.87
78990;BME280;68390;52.130;21.218;2023-03-25T11:41:12;99319.41;;;15.45;51.44
78990;BME280;68390;52.130;21.218;2023-03-25T11:43:39;99304.00;;;15.30;51.75
78990;BME280;68390;52.130;21.218;2023-03-25T11:46:10;99306.03;;;15.17;51.86
78990;BME280;68390;52.130;21.218;2023-03-25T11:48:38;99312.03;;;15.14;52.68
78990;BME280;68390;52.130;21.218;2023-03-25T11:51:28;99304.59;;;15.14;53.12
78990;BME280;68390;52.130;21.218;2023-03-25T11:53:56;99306.88;;;15.17;54.38
78990;BME280;68390;52.130;21.218;2023-03-25T11:56:28;99296.78;;;15.29;54.64
78990;BME280;68390;52.130;21.218;2023-03-25T11:58:58;99301.25;;;15.73;53.28
78990;BME280;68390;52.130;21.218;2023-03-25T12:01:37;99299.31;;;15.92;53.75
78990;BME280;68390;52.130;21.218;2023-03-25T12:04:13;99294.63;;;15.93;52.77
78990;BME280;68390;52.130;21.218;2023-03-25T12:07:00;99291.63;;;15.94;53.31
78990;BME280;68390;52.130;21.218;2023-03-25T12:09:28;99296.31;;;15.94;52.24
78990;BME280;68390;52.130;21.218;2023-03-25T12:17:51;99280.38;;;15.53;51.68
78990;BME280;68390;52.130;21.218;2023-03-25T12:20:28;99280.06;;;15.42;52.43
78990;BME280;68390;52.130;21.218;2023-03-25T12:23:01;99274.88;;;15.28;53.30
78990;BME280;68390;52.130;21.218;2023-03-25T12:25:35;99282.00;;;15.17;53.06
78990;BME280;68390;52.130;21.218;2023-03-25T12:30:40;99278.19;;;14.93;52.08
78990;BME280;68390;52.130;21.218;2023-03-25T12:33:41;99264.88;;;14.84;53.94
78990;BME280;68390;52.130;21.218;2023-03-25T12:39:00;99269.59;;;14.77;55.29
78990;BME280;68390;52.130;21.218;2023-03-25T12:41:45;99261.81;;;14.67;54.88
78990;BME280;68390;52.130;21.218;2023-03-25T12:44:27;99261.09;;;14.53;55.41
78990;BME280;68390;52.130;21.218;2023-03-25T12:52:34;99245.72;;;14.26;59.15
78990;BME280;68390;52.130;21.218;2023-03-25T12:58:00;99256.97;;;14.24;55.46
78990;BME280;68390;52.130;21.218;2023-03-25T13:08:41;99250.03;;;14.53;56.30
78990;BME280;68390;52.130;21.218;2023-03-25T13:11:17;99246.53;;;14.64;54.83
78990;BME280;68390;52.130;21.218;2023-03-25T13:13:47;99243.44;;;14.79;53.91
78990;BME280;68390;52.130;21.218;2023-03-25T13:16:17;99246.31;;;14.91;53.13
78990;BME280;68390;52.130;21.218;2023-03-25T13:18:48;99246.25;;;14.97;54.13
78990;BME280;68390;52.130;21.218;2023-03-25T13:21:29;99243.25;;;14.99;53.06
78990;BME280;68390;52.130;21.218;2023-03-25T13:24:16;99238.25;;;14.89;53.60
78990;BME280;68390;52.130;21.218;2023-03-25T13:26:44;99242.16;;;14.82;53.48
78990;BME280;68390;52.130;21.218;2023-03-25T13:29:20;99246.09;;;14.67;53.03
78990;BME280;68390;52.130;21.218;2023-03-25T13:31:48;99246.66;;;14.51;53.58
78990;BME280;68390;52.130;21.218;2023-03-25T13:34:26;99238.63;;;14.37;53.18
78990;BME280;68390;52.130;21.218;2023-03-25T13:37:05;99231.25;;;14.30;53.95
78990;BME280;68390;52.130;21.218;2023-03-25T13:39:48;99229.00;;;14.21;55.74
78990;BME280;68390;52.130;21.218;2023-03-25T13:42:35;99239.44;;;14.12;55.59
78990;BME280;68390;52.130;21.218;2023-03-25T13:45:04;99255.88;;;14.01;57.40
78990;BME280;68390;52.130;21.218;2023-03-25T13:47:35;99275.91;;;13.83;59.11
78990;BME280;68390;52.130;21.218;2023-03-25T13:50:13;99293.41;;;13.50;63.28
78990;BME280;68390;52.130;21.218;2023-03-25T13:52:42;99282.44;;;13.04;65.19
78990;BME280;68390;52.130;21.218;2023-03-25T13:55:15;99262.31;;;12.58;64.80
78990;BME280;68390;52.130;21.218;2023-03-25T14:12:07;99222.75;;;11.71;71.41
78990;BME280;68390;52.130;21.218;2023-03-25T14:14:39;99225.91;;;11.68;72.64
78990;BME280;68390;52.130;21.218;2023-03-25T14:17:06;99228.59;;;11.55;74.55
78990;BME280;68390;52.130;21.218;2023-03-25T14:19:35;99236.66;;;11.63;72.47
78990;BME280;68390;52.130;21.218;2023-03-25T14:22:07;99241.38;;;11.69;73.43
78990;BME280;68390;52.130;21.218;2023-03-25T14:24:35;99247.34;;;11.80;74.90
78990;BME280;68390;52.130;21.218;2023-03-25T14:27:03;99248.88;;;11.89;75.13
78990;BME280;68390;52.130;21.218;2023-03-25T14:29:38;99248.88;;;11.95;76.97
78990;BME280;68390;52.130;21.218;2023-03-25T14:34:33;99250.81;;;12.08;76.56
78990;BME280;68390;52.130;21.218;2023-03-25T14:42:02;99254.25;;;12.23;75.47
78990;BME280;68390;52.130;21.218;2023-03-25T14:44:41;99246.81;;;12.17;74.22
78990;BME280;68390;52.130;21.218;2023-03-25T14:50:01;99247.66;;;12.11;74.82
78990;BME280;68390;52.130;21.218;2023-03-25T14:52:36;99248.72;;;12.10;75.08
78990;BME280;68390;52.130;21.218;2023-03-25T14:55:09;99254.41;;;12.15;77.17
78990;BME280;68390;52.130;21.218;2023-03-25T14:57:41;99249.16;;;12.20;76.24
78990;BME280;68390;52.130;21.218;2023-03-25T15:00:09;99247.69;;;12.24;76.73